Terminal Aerodrome Forecast
Issued by NWS

Current Version | Previous Version | Text Only | Print | Product List | Glossary On
Versions: 1 2 3 4 5 6 7 8 9 10 11 12
105
FTUS45 KVEF 182320
TAFBIH
TAF
KBIH 182320Z 1900/1924 18010KT P6SM BKN100
     FM190200 16011KT P6SM -SHRA SCT050 BKN080
     FM191400 35007KT P6SM SCT070 BKN100=

USA.gov is the U.S. government's official web portal to all federal, state and local government web resources and services.